Time;durP1;ratioP1;P1;durP2;ratioP2;P2;SDS_P1;SDS_P2;PMS_P1;PMS_P2;Temp;Humidity;BMP_temperature;BMP_pressure;BME280_temperature;BME280_humidity;BME280_pressure;Samples;Min_cycle;Max_cycle;Signal;HPM_P1;HPM_P2
2021/11/27 00:02:07;;;;;;;31.00;12.60;;;;;;;;;;4987853;28;20047;-59
2021/11/27 00:04:33;;;;;;;34.40;13.70;;;;;;;;;;5006536;28;20041;-61
2021/11/27 00:07:01;;;;;;;29.48;13.50;;;;;;;;;;4971283;28;20053;-60
2021/11/27 00:09:33;;;;;;;28.73;12.20;;;;;;;;;;4987603;28;20065;-59
2021/11/27 00:12:05;;;;;;;31.25;13.32;;;;;;;;;;4986896;28;20038;-59
2021/11/27 00:14:33;;;;;;;31.70;13.07;;;;;;;;;;4986334;28;20069;-59
2021/11/27 00:17:01;;;;;;;28.90;13.02;;;;;;;;;;4954709;28;20034;-59
2021/11/27 00:19:29;;;;;;;32.33;12.43;;;;;;;;;;4989318;28;20934;-60
2021/11/27 00:21:54;;;;;;;29.63;12.10;;;;;;;;;;4985080;28;20057;-59
2021/11/27 00:24:22;;;;;;;30.98;13.30;;;;;;;;;;4968511;28;20047;-58
2021/11/27 00:26:48;;;;;;;34.67;14.60;;;;;;;;;;4988956;28;20037;-61
2021/11/27 00:29:16;;;;;;;33.63;12.95;;;;;;;;;;4990074;28;20088;-60
2021/11/27 00:31:44;;;;;;;30.90;14.05;;;;;;;;;;4986520;28;20053;-61
2021/11/27 00:34:13;;;;;;;33.65;13.00;;;;;;;;;;4976348;28;20045;-60
2021/11/27 00:36:43;;;;;;;35.05;13.45;;;;;;;;;;4975656;28;20061;-61
2021/11/27 00:39:11;;;;;;;30.70;12.63;;;;;;;;;;4982988;28;20054;-59
2021/11/27 00:41:41;;;;;;;32.22;14.13;;;;;;;;;;4985236;28;20026;-59
2021/11/27 00:44:12;;;;;;;33.95;13.88;;;;;;;;;;4991854;28;20233;-60
2021/11/27 00:46:42;;;;;;;35.83;13.52;;;;;;;;;;4973991;28;20124;-58
2021/11/27 00:49:08;;;;;;;29.38;13.25;;;;;;;;;;4991752;28;20034;-61
2021/11/27 00:51:36;;;;;;;31.80;14.23;;;;;;;;;;4973481;28;20223;-59
2021/11/27 00:54:04;;;;;;;34.05;14.15;;;;;;;;;;4992649;28;20104;-59
2021/11/27 00:56:37;;;;;;;35.83;14.10;;;;;;;;;;4976838;28;20025;-59
2021/11/27 00:59:05;;;;;;;33.92;12.70;;;;;;;;;;4990242;28;20046;-60
2021/11/27 01:01:32;;;;;;;36.90;13.93;;;;;;;;;;4990834;28;20029;-59
2021/11/27 01:04:03;;;;;;;33.83;14.38;;;;;;;;;;4989005;28;20615;-60
2021/11/27 01:06:34;;;;;;;38.45;15.38;;;;;;;;;;4973076;28;20084;-61
2021/11/27 01:09:03;;;;;;;40.20;14.10;;;;;;;;;;4972907;28;20045;-60
2021/11/27 01:11:35;;;;;;;34.03;14.02;;;;;;;;;;4972907;28;20034;-60
2021/11/27 01:14:04;;;;;;;38.75;14.30;;;;;;;;;;4976072;28;20069;-59
2021/11/27 01:16:33;;;;;;;33.67;14.85;;;;;;;;;;4987615;28;20167;-59
2021/11/27 01:18:59;;;;;;;31.38;13.93;;;;;;;;;;4990415;28;20021;-58
2021/11/27 01:21:28;;;;;;;39.35;13.85;;;;;;;;;;4989837;28;20018;-60
2021/11/27 01:24:03;;;;;;;36.92;14.68;;;;;;;;;;4971096;28;20038;-59
2021/11/27 01:26:31;;;;;;;;;;;;;;;;;;4987934;28;20037;-59
2021/11/27 01:28:57;;;;;;;39.33;13.80;;;;;;;;;;4988352;28;19982;-60
2021/11/27 01:31:25;;;;;;;42.92;15.90;;;;;;;;;;4989862;28;20033;-59
2021/11/27 01:33:50;;;;;;;38.85;14.57;;;;;;;;;;4986433;28;20177;-61
2021/11/27 01:36:18;;;;;;;38.80;15.15;;;;;;;;;;4989775;28;20025;-60
2021/11/27 01:38:43;;;;;;;38.60;14.68;;;;;;;;;;4972920;28;20033;-59
2021/11/27 01:41:09;;;;;;;33.15;12.50;;;;;;;;;;4973816;28;20032;-59
2021/11/27 01:43:38;;;;;;;34.03;14.35;;;;;;;;;;4988405;28;20065;-59
2021/11/27 01:46:03;;;;;;;31.65;13.50;;;;;;;;;;4974653;28;20033;-60
2021/11/27 01:48:29;;;;;;;42.13;15.13;;;;;;;;;;4975876;28;20045;-61
2021/11/27 01:51:01;;;;;;;39.75;15.05;;;;;;;;;;4989393;28;20034;-59
2021/11/27 01:53:30;;;;;;;35.05;13.85;;;;;;;;;;4989672;28;20042;-59
2021/11/27 01:56:03;;;;;;;32.42;13.82;;;;;;;;;;4970389;28;20026;-60
2021/11/27 01:58:31;;;;;;;32.53;12.48;;;;;;;;;;4988280;28;20108;-59
2021/11/27 02:01:02;;;;;;;29.35;12.32;;;;;;;;;;4988113;28;20026;-59
2021/11/27 02:03:28;;;;;;;31.65;12.43;;;;;;;;;;4973727;28;20174;-59
2021/11/27 02:05:56;;;;;;;30.00;11.25;;;;;;;;;;4992065;28;20061;-58
2021/11/27 02:08:23;;;;;;;31.92;12.35;;;;;;;;;;5008032;28;22030;-59
2021/11/27 02:10:48;;;;;;;37.10;12.90;;;;;;;;;;4979471;28;20476;-57
2021/11/27 02:13:14;;;;;;;29.73;12.38;;;;;;;;;;4997165;28;20078;-59
2021/11/27 02:15:40;;;;;;;30.27;11.80;;;;;;;;;;5011764;28;20139;-57
2021/11/27 02:18:08;;;;;;;35.05;13.40;;;;;;;;;;4995983;28;20124;-58
2021/11/27 02:20:37;;;;;;;35.72;13.25;;;;;;;;;;5016127;28;20021;-58
2021/11/27 02:23:08;;;;;;;33.80;13.88;;;;;;;;;;5012060;28;20045;-59
2021/11/27 02:25:33;;;;;;;33.33;13.75;;;;;;;;;;5014097;28;20041;-58
2021/11/27 02:27:59;;;;;;;30.42;12.32;;;;;;;;;;5017957;28;20044;-58
2021/11/27 02:30:25;;;;;;;31.42;12.70;;;;;;;;;;5018047;28;20035;-59
2021/11/27 02:32:53;;;;;;;32.80;12.60;;;;;;;;;;4999048;28;20034;-60
2021/11/27 02:35:21;;;;;;;28.58;10.95;;;;;;;;;;5016513;28;20029;-58
2021/11/27 02:37:46;;;;;;;29.98;13.20;;;;;;;;;;4999981;28;20106;-57
2021/11/27 02:40:13;;;;;;;33.10;12.10;;;;;;;;;;5014375;28;20564;-57
2021/11/27 02:42:38;;;;;;;34.00;13.68;;;;;;;;;;4997255;28;20025;-58
2021/11/27 02:45:07;;;;;;;32.38;11.27;;;;;;;;;;5013054;28;20068;-58
2021/11/27 02:47:33;;;;;;;31.85;11.70;;;;;;;;;;5012786;28;20028;-58
2021/11/27 02:50:02;;;;;;;28.10;12.32;;;;;;;;;;4977208;28;20029;-59
2021/11/27 02:52:30;;;;;;;31.15;12.10;;;;;;;;;;5010209;28;20033;-58
2021/11/27 02:54:58;;;;;;;26.60;10.10;;;;;;;;;;5011022;28;20037;-57
2021/11/27 02:57:24;;;;;;;31.70;11.15;;;;;;;;;;4991651;28;20759;-57
2021/11/27 02:59:52;;;;;;;27.77;10.18;;;;;;;;;;5010610;28;20167;-57
2021/11/27 03:02:18;;;;;;;29.73;11.68;;;;;;;;;;4994536;28;20034;-58
2021/11/27 03:04:43;;;;;;;30.73;11.93;;;;;;;;;;5008290;28;20435;-58
2021/11/27 03:07:11;;;;;;;25.38;11.18;;;;;;;;;;5008552;28;20073;-59
2021/11/27 03:09:41;;;;;;;32.30;11.00;;;;;;;;;;4992993;28;20204;-58
2021/11/27 03:12:10;;;;;;;28.80;11.50;;;;;;;;;;5012033;28;20061;-57
2021/11/27 03:14:38;;;;;;;30.52;11.50;;;;;;;;;;5011515;28;20040;-57
2021/11/27 03:17:05;;;;;;;23.58;11.43;;;;;;;;;;4999856;28;20029;-58
2021/11/27 03:19:32;;;;;;;25.77;11.02;;;;;;;;;;5010959;28;20114;-58
2021/11/27 03:21:58;;;;;;;27.85;11.27;;;;;;;;;;5009022;28;20102;-58
2021/11/27 03:24:24;;;;;;;25.27;11.02;;;;;;;;;;4990935;28;20070;-56
2021/11/27 03:26:51;;;;;;;32.65;10.95;;;;;;;;;;4983010;28;22140;-59
2021/11/27 03:29:17;;;;;;;27.10;11.25;;;;;;;;;;5009923;28;20132;-58
2021/11/27 03:31:43;;;;;;;25.50;10.60;;;;;;;;;;5011078;28;20029;-56
2021/11/27 03:34:12;;;;;;;28.05;12.48;;;;;;;;;;5009236;28;20033;-57
2021/11/27 03:36:40;;;;;;;29.65;12.25;;;;;;;;;;5007775;28;20412;-57
2021/11/27 03:39:12;;;;;;;25.25;10.45;;;;;;;;;;4991481;28;20020;-58
2021/11/27 03:41:42;;;;;;;27.55;11.50;;;;;;;;;;5010361;28;20033;-57
2021/11/27 03:44:12;;;;;;;24.35;10.48;;;;;;;;;;5012950;28;20160;-58
2021/11/27 03:46:37;;;;;;;28.08;10.60;;;;;;;;;;5009104;28;20045;-58
2021/11/27 03:49:05;;;;;;;24.17;9.57;;;;;;;;;;4975616;28;20099;-58
2021/11/27 03:51:31;;;;;;;26.33;11.77;;;;;;;;;;5007554;28;20160;-59
2021/11/27 03:54:03;;;;;;;30.65;12.07;;;;;;;;;;5008776;28;20036;-58
2021/11/27 03:56:34;;;;;;;27.55;10.95;;;;;;;;;;5008222;28;20666;-58
2021/11/27 03:59:06;;;;;;;35.80;11.73;;;;;;;;;;4990696;28;20427;-58
2021/11/27 04:01:34;;;;;;;27.35;11.60;;;;;;;;;;5010604;28;20029;-59
2021/11/27 04:04:00;;;;;;;27.92;10.85;;;;;;;;;;4989021;28;20114;-58
2021/11/27 04:06:26;;;;;;;33.20;12.23;;;;;;;;;;5015150;28;20110;-57
2021/11/27 04:09:00;;;;;;;31.75;11.75;;;;;;;;;;5013194;28;20431;-57
2021/11/27 04:11:26;;;;;;;34.97;12.65;;;;;;;;;;4990352;28;20037;-59
2021/11/27 04:13:52;;;;;;;32.78;13.05;;;;;;;;;;5014043;28;20037;-57
2021/11/27 04:16:17;;;;;;;33.33;13.35;;;;;;;;;;5012847;28;22214;-58
2021/11/27 04:18:45;;;;;;;36.28;11.98;;;;;;;;;;5014104;28;20075;-57
2021/11/27 04:21:11;;;;;;;33.55;12.63;;;;;;;;;;5014414;28;20658;-57
2021/11/27 04:23:37;;;;;;;32.97;12.00;;;;;;;;;;5014373;28;20041;-57
2021/11/27 04:26:03;;;;;;;30.30;10.70;;;;;;;;;;5012601;28;20121;-58
2021/11/27 04:28:31;;;;;;;32.80;12.18;;;;;;;;;;5013991;28;20021;-58
2021/11/27 04:30:59;;;;;;;29.25;11.15;;;;;;;;;;5012587;28;20029;-58
2021/11/27 04:33:27;;;;;;;29.63;11.38;;;;;;;;;;4994915;28;22130;-58
2021/11/27 04:35:55;;;;;;;29.60;12.38;;;;;;;;;;5014320;28;20040;-57
2021/11/27 04:38:21;;;;;;;29.40;10.65;;;;;;;;;;5014782;28;20528;-59
2021/11/27 04:40:46;;;;;;;33.78;12.43;;;;;;;;;;4996940;28;20035;-58
2021/11/27 04:43:17;;;;;;;31.60;12.13;;;;;;;;;;4994429;28;20041;-57
2021/11/27 04:45:42;;;;;;;29.13;11.20;;;;;;;;;;5014046;28;20118;-59
2021/11/27 04:48:13;;;;;;;31.85;11.50;;;;;;;;;;5014618;28;20417;-58
2021/11/27 04:50:39;;;;;;;32.42;11.55;;;;;;;;;;4994457;28;20087;-57
2021/11/27 04:53:05;;;;;;;29.23;12.30;;;;;;;;;;5012760;28;20136;-58
2021/11/27 04:55:35;;;;;;;29.60;13.18;;;;;;;;;;4993517;28;20026;-58
2021/11/27 04:58:11;;;;;;;33.45;11.05;;;;;;;;;;5012494;28;20030;-58
2021/11/27 05:00:42;;;;;;;34.60;12.52;;;;;;;;;;4991928;28;20107;-59
2021/11/27 05:03:10;;;;;;;34.72;11.50;;;;;;;;;;5013245;28;21010;-59
2021/11/27 05:05:35;;;;;;;40.60;13.60;;;;;;;;;;5013857;28;20037;-58
2021/11/27 05:08:01;;;;;;;37.17;12.35;;;;;;;;;;4993349;28;20054;-58
2021/11/27 05:10:26;;;;;;;30.00;12.23;;;;;;;;;;4979771;28;20040;-57
2021/11/27 05:12:54;;;;;;;35.53;13.35;;;;;;;;;;5013390;28;23149;-57
2021/11/27 05:15:22;;;;;;;42.28;13.65;;;;;;;;;;5014595;28;20092;-58
2021/11/27 05:17:48;;;;;;;35.13;13.32;;;;;;;;;;5007439;28;20121;-58
2021/11/27 05:20:16;;;;;;;47.03;14.82;;;;;;;;;;4995063;28;20033;-56
2021/11/27 05:22:42;;;;;;;37.28;13.50;;;;;;;;;;5010575;28;20026;-58
2021/11/27 05:25:10;;;;;;;37.55;13.65;;;;;;;;;;4993374;28;20052;-60
2021/11/27 05:27:37;;;;;;;34.72;12.63;;;;;;;;;;4989398;28;20069;-58
2021/11/27 05:30:03;;;;;;;34.45;12.45;;;;;;;;;;5012794;28;20029;-58
2021/11/27 05:35:06;;;;;;;36.33;14.18;;;;;;;;;;5012388;28;20053;-58
2021/11/27 05:37:33;;;;;;;32.83;11.70;;;;;;;;;;4992334;28;20931;-59
2021/11/27 05:40:00;;;;;;;38.20;13.50;;;;;;;;;;4993472;28;20034;-59
2021/11/27 05:42:28;;;;;;;45.40;14.43;;;;;;;;;;5011773;28;20021;-58
2021/11/27 05:44:57;;;;;;;55.60;15.20;;;;;;;;;;5009991;28;20037;-57
2021/11/27 05:47:24;;;;;;;46.42;13.90;;;;;;;;;;5007807;28;20036;-58
2021/11/27 05:49:54;;;;;;;34.42;13.10;;;;;;;;;;5013934;28;20057;-58
2021/11/27 05:52:22;;;;;;;38.97;13.20;;;;;;;;;;4992566;28;20068;-57
2021/11/27 05:54:48;;;;;;;32.80;12.75;;;;;;;;;;4977482;28;20056;-58
2021/11/27 05:57:16;;;;;;;34.92;12.32;;;;;;;;;;5009118;28;20038;-59
2021/11/27 05:59:41;;;;;;;32.97;10.63;;;;;;;;;;4994540;28;20036;-58
2021/11/27 06:02:07;;;;;;;24.15;10.13;;;;;;;;;;4978122;28;20032;-59
2021/11/27 06:04:35;;;;;;;28.80;11.55;;;;;;;;;;5012602;28;20068;-58
2021/11/27 06:07:03;;;;;;;31.80;10.90;;;;;;;;;;5011024;28;20110;-58
2021/11/27 06:09:31;;;;;;;29.23;10.80;;;;;;;;;;4994567;28;20038;-58
2021/11/27 06:12:04;;;;;;;32.40;10.63;;;;;;;;;;5010499;28;20075;-59
2021/11/27 06:14:34;;;;;;;27.00;11.20;;;;;;;;;;5011319;28;20542;-59
2021/11/27 06:16:59;;;;;;;29.30;10.32;;;;;;;;;;5011034;28;20788;-59
2021/11/27 06:19:32;;;;;;;26.35;10.70;;;;;;;;;;4995058;28;20029;-58
2021/11/27 06:22:03;;;;;;;36.70;12.38;;;;;;;;;;5018167;28;20083;-59
2021/11/27 06:24:33;;;;;;;29.90;11.52;;;;;;;;;;4994607;28;20045;-58
2021/11/27 06:26:59;;;;;;;29.00;12.02;;;;;;;;;;4993859;28;20421;-59
2021/11/27 06:29:27;;;;;;;29.20;12.07;;;;;;;;;;5007440;28;20099;-58
2021/11/27 06:31:54;;;;;;;32.22;11.20;;;;;;;;;;5014138;28;20041;-58
2021/11/27 06:34:22;;;;;;;36.83;11.50;;;;;;;;;;5009960;28;20492;-59
2021/11/27 06:36:52;;;;;;;29.40;12.45;;;;;;;;;;5010191;28;20579;-58
2021/11/27 06:39:23;;;;;;;25.60;9.98;;;;;;;;;;5012219;28;20052;-57
2021/11/27 06:41:51;;;;;;;33.75;11.63;;;;;;;;;;5011046;28;20451;-59
2021/11/27 06:44:17;;;;;;;34.08;12.77;;;;;;;;;;5011117;28;20143;-59
2021/11/27 06:46:43;;;;;;;32.25;12.43;;;;;;;;;;4991615;28;20144;-59
2021/11/27 06:49:14;;;;;;;27.67;11.70;;;;;;;;;;4992851;28;20176;-59
2021/11/27 06:51:40;;;;;;;37.72;13.07;;;;;;;;;;4978262;28;20433;-58
2021/11/27 06:54:08;;;;;;;31.75;11.95;;;;;;;;;;4993701;28;20769;-59
2021/11/27 06:56:36;;;;;;;29.40;11.30;;;;;;;;;;5008327;28;20044;-59
2021/11/27 06:59:01;;;;;;;36.97;13.27;;;;;;;;;;5010571;28;20028;-58
2021/11/27 07:01:34;;;;;;;32.72;12.57;;;;;;;;;;5007290;28;20113;-58
2021/11/27 07:04:01;;;;;;;31.17;11.90;;;;;;;;;;5010108;28;20033;-59
2021/11/27 07:06:29;;;;;;;31.60;12.57;;;;;;;;;;4995090;28;20043;-58
2021/11/27 07:08:57;;;;;;;34.80;13.20;;;;;;;;;;4991133;28;20045;-57
2021/11/27 07:11:25;;;;;;;32.55;13.13;;;;;;;;;;4992536;28;20052;-57
2021/11/27 07:13:50;;;;;;;28.98;12.15;;;;;;;;;;4976471;28;20178;-59
2021/11/27 07:16:15;;;;;;;34.70;13.07;;;;;;;;;;4988872;28;20378;-59
2021/11/27 07:18:46;;;;;;;35.60;12.95;;;;;;;;;;4996244;28;20037;-60
2021/11/27 07:21:14;;;;;;;37.83;12.90;;;;;;;;;;4992744;28;20129;-58
2021/11/27 07:23:41;;;;;;;43.80;13.15;;;;;;;;;;4996416;28;20041;-57
2021/11/27 07:26:07;;;;;;;37.42;13.40;;;;;;;;;;4997529;28;20173;-58
2021/11/27 07:28:37;;;;;;;47.33;14.07;;;;;;;;;;4975398;28;20040;-57
2021/11/27 07:31:05;;;;;;;38.50;13.73;;;;;;;;;;4996792;28;20038;-57
2021/11/27 07:33:30;;;;;;;31.25;13.27;;;;;;;;;;4994848;28;22056;-58
2021/11/27 07:35:56;;;;;;;44.20;16.42;;;;;;;;;;4996619;28;20140;-59
2021/11/27 07:38:24;;;;;;;38.08;13.45;;;;;;;;;;4992934;28;20025;-59
2021/11/27 07:40:52;;;;;;;41.47;14.25;;;;;;;;;;4991715;28;20026;-59
2021/11/27 07:43:20;;;;;;;31.77;13.57;;;;;;;;;;4978762;28;20044;-59
2021/11/27 07:45:50;;;;;;;37.25;14.45;;;;;;;;;;4997198;28;20066;-59
2021/11/27 07:48:18;;;;;;;34.38;13.52;;;;;;;;;;4998220;28;20560;-59
2021/11/27 07:50:49;;;;;;;40.40;13.88;;;;;;;;;;4993929;28;20042;-57
2021/11/27 07:53:14;;;;;;;37.42;13.95;;;;;;;;;;4992081;28;20406;-58
2021/11/27 07:55:44;;;;;;;30.52;12.60;;;;;;;;;;4979401;28;20029;-59
2021/11/27 07:58:12;;;;;;;36.30;13.13;;;;;;;;;;4972268;28;20168;-58
2021/11/27 08:00:44;;;;;;;35.88;14.82;;;;;;;;;;4996824;28;20033;-58
2021/11/27 08:03:10;;;;;;;34.80;12.55;;;;;;;;;;4973167;28;20083;-57
2021/11/27 08:05:36;;;;;;;38.88;13.90;;;;;;;;;;4954951;28;20042;-57
2021/11/27 08:08:03;;;;;;;37.40;14.18;;;;;;;;;;4971979;28;21088;-59
2021/11/27 08:10:29;;;;;;;41.75;13.80;;;;;;;;;;5006895;28;20086;-60
2021/11/27 08:12:56;;;;;;;35.70;13.98;;;;;;;;;;4989898;28;21714;-59
2021/11/27 08:15:24;;;;;;;29.25;13.52;;;;;;;;;;4992532;28;20113;-60
2021/11/27 08:17:52;;;;;;;39.95;13.77;;;;;;;;;;5007357;28;20502;-59
2021/11/27 08:20:17;;;;;;;29.63;12.93;;;;;;;;;;5010526;28;20040;-60
2021/11/27 08:22:50;;;;;;;39.60;14.98;;;;;;;;;;5014636;28;20025;-58
2021/11/27 08:25:18;;;;;;;31.70;12.68;;;;;;;;;;5012248;28;20022;-59
2021/11/27 08:27:45;;;;;;;33.30;12.00;;;;;;;;;;5010577;28;20382;-58
2021/11/27 08:30:11;;;;;;;33.30;11.50;;;;;;;;;;4990856;28;20691;-59
2021/11/27 08:32:37;;;;;;;28.90;11.70;;;;;;;;;;5012706;28;20033;-59
2021/11/27 08:35:05;;;;;;;38.40;14.00;;;;;;;;;;4999524;28;20045;-58
2021/11/27 08:37:31;;;;;;;36.70;13.68;;;;;;;;;;5008731;28;20034;-58
2021/11/27 08:39:59;;;;;;;25.83;11.13;;;;;;;;;;5011547;28;20034;-59
2021/11/27 08:42:25;;;;;;;29.67;11.75;;;;;;;;;;5008050;28;20025;-57
2021/11/27 08:44:53;;;;;;;35.45;12.73;;;;;;;;;;5008525;28;20111;-59
2021/11/27 08:47:26;;;;;;;33.70;11.32;;;;;;;;;;4993183;28;20094;-59
2021/11/27 08:49:58;;;;;;;33.00;12.82;;;;;;;;;;5012087;28;20499;-60
2021/11/27 08:52:24;;;;;;;26.88;10.93;;;;;;;;;;5014669;28;20029;-58
2021/11/27 08:54:52;;;;;;;31.30;10.98;;;;;;;;;;4998297;28;20075;-58
2021/11/27 08:57:23;;;;;;;29.50;11.38;;;;;;;;;;4999413;28;20700;-59
2021/11/27 08:59:51;;;;;;;30.38;11.82;;;;;;;;;;4995955;28;20034;-59
2021/11/27 09:02:20;;;;;;;29.92;11.77;;;;;;;;;;4998794;28;20048;-59
2021/11/27 09:04:46;;;;;;;31.27;10.55;;;;;;;;;;5015553;28;20049;-58
2021/11/27 09:07:15;;;;;;;30.17;11.90;;;;;;;;;;5017457;28;20057;-58
2021/11/27 09:09:45;;;;;;;28.35;11.05;;;;;;;;;;4999155;28;21221;-58
2021/11/27 09:12:11;;;;;;;27.65;10.15;;;;;;;;;;4996244;28;20046;-58
2021/11/27 09:14:37;;;;;;;23.55;9.38;;;;;;;;;;5016002;28;20049;-58
2021/11/27 09:17:03;;;;;;;27.02;9.88;;;;;;;;;;5014179;28;21156;-57
2021/11/27 09:19:31;;;;;;;26.85;9.77;;;;;;;;;;4997324;28;20168;-56
2021/11/27 09:21:58;;;;;;;31.08;10.43;;;;;;;;;;5015948;28;20401;-57
2021/11/27 09:24:24;;;;;;;26.73;10.35;;;;;;;;;;5015138;28;20151;-57
2021/11/27 09:26:56;;;;;;;26.90;9.38;;;;;;;;;;5013333;28;20057;-57
2021/11/27 09:29:28;;;;;;;28.50;10.52;;;;;;;;;;5005949;28;20037;-57
2021/11/27 09:31:58;;;;;;;23.52;9.32;;;;;;;;;;5010615;28;20463;-60
2021/11/27 09:34:25;;;;;;;21.83;8.65;;;;;;;;;;4968445;28;20045;-58
2021/11/27 09:36:51;;;;;;;25.23;9.50;;;;;;;;;;4996795;28;20853;-58
2021/11/27 09:39:22;;;;;;;26.33;9.00;;;;;;;;;;5013890;28;20030;-58
2021/11/27 09:41:51;;;;;;;27.40;10.25;;;;;;;;;;5015781;28;20401;-58
2021/11/27 09:44:19;;;;;;;24.13;9.25;;;;;;;;;;4996999;28;20067;-56
2021/11/27 09:46:45;;;;;;;25.17;10.18;;;;;;;;;;5013428;28;20060;-58
2021/11/27 09:49:18;;;;;;;23.45;9.23;;;;;;;;;;4993378;28;20051;-58
2021/11/27 09:51:44;;;;;;;25.08;8.77;;;;;;;;;;5015618;28;20033;-57
2021/11/27 09:54:16;;;;;;;16.92;8.90;;;;;;;;;;5014309;28;20057;-59
2021/11/27 09:56:47;;;;;;;20.17;8.90;;;;;;;;;;5010770;28;20037;-58
2021/11/27 09:59:13;;;;;;;26.05;9.98;;;;;;;;;;5013995;28;20913;-58
2021/11/27 10:01:45;;;;;;;22.73;9.55;;;;;;;;;;5013595;28;20036;-56
2021/11/27 10:04:14;;;;;;;16.50;7.60;;;;;;;;;;5009639;28;20489;-58
2021/11/27 10:06:43;;;;;;;28.33;9.52;;;;;;;;;;4998926;28;20112;-57
2021/11/27 10:09:13;;;;;;;32.33;9.30;;;;;;;;;;4993976;28;20601;-57
2021/11/27 10:11:40;;;;;;;20.25;7.63;;;;;;;;;;4992316;28;20072;-58
2021/11/27 10:14:13;;;;;;;23.90;8.63;;;;;;;;;;4993273;28;20044;-57
2021/11/27 10:16:59;;;;;;;24.48;8.15;;;;;;;;;;4992726;28;20065;-57
2021/11/27 10:19:46;;;;;;;20.92;8.60;;;;;;;;;;4977170;28;20034;-58
2021/11/27 10:22:14;;;;;;;23.23;8.10;;;;;;;;;;4976358;28;20026;-59
2021/11/27 10:24:46;;;;;;;21.27;7.97;;;;;;;;;;4992274;28;20144;-57
2021/11/27 10:27:22;;;;;;;16.40;7.60;;;;;;;;;;4945367;28;20045;-57
2021/11/27 10:29:56;;;;;;;17.73;7.50;;;;;;;;;;4990643;28;20386;-58
2021/11/27 10:32:28;;;;;;;22.00;8.75;;;;;;;;;;4969537;28;20472;-57
2021/11/27 10:34:58;;;;;;;20.30;7.57;;;;;;;;;;4972989;28;20038;-58
2021/11/27 10:37:28;;;;;;;18.17;7.47;;;;;;;;;;4989766;28;20093;-57
2021/11/27 10:40:02;;;;;;;21.23;8.38;;;;;;;;;;4991567;28;21236;-57
2021/11/27 10:42:31;;;;;;;20.60;7.78;;;;;;;;;;4991212;28;20029;-59
2021/11/27 10:44:56;;;;;;;21.40;8.13;;;;;;;;;;4973843;28;20056;-58
2021/11/27 10:47:23;;;;;;;16.67;7.32;;;;;;;;;;5006467;28;20435;-57
2021/11/27 10:49:49;;;;;;;17.13;7.28;;;;;;;;;;4992910;28;20058;-58
2021/11/27 10:52:19;;;;;;;19.25;6.97;;;;;;;;;;4971141;28;20765;-58
2021/11/27 10:54:54;;;;;;;18.80;6.97;;;;;;;;;;4989166;28;20033;-56
2021/11/27 10:57:30;;;;;;;15.95;6.95;;;;;;;;;;4975226;28;20597;-57
2021/11/27 10:59:58;;;;;;;26.85;10.10;;;;;;;;;;4991482;28;20040;-58
2021/11/27 11:02:27;;;;;;;22.25;7.95;;;;;;;;;;4990930;28;20029;-59
2021/11/27 11:05:00;;;;;;;14.95;6.88;;;;;;;;;;4973128;28;20169;-56
2021/11/27 11:07:28;;;;;;;17.27;6.18;;;;;;;;;;4994523;28;20121;-58
2021/11/27 11:10:12;;;;;;;12.30;6.13;;;;;;;;;;5013673;28;20160;-56
2021/11/27 11:12:40;;;;;;;18.90;6.63;;;;;;;;;;5014046;28;20045;-58
2021/11/27 11:15:28;;;;;;;13.95;5.40;;;;;;;;;;5010621;28;20109;-57
2021/11/27 11:18:04;;;;;;;13.63;6.47;;;;;;;;;;5014171;28;20029;-63
2021/11/27 11:20:32;;;;;;;12.48;5.78;;;;;;;;;;5013055;28;20037;-58
2021/11/27 11:22:58;;;;;;;12.80;5.43;;;;;;;;;;4975335;28;20513;-58
2021/11/27 11:25:24;;;;;;;16.27;5.47;;;;;;;;;;5010209;28;20036;-57
2021/11/27 11:27:53;;;;;;;12.50;5.28;;;;;;;;;;5007110;28;20025;-58
2021/11/27 11:30:22;;;;;;;15.40;5.63;;;;;;;;;;4995016;28;20029;-58
2021/11/27 11:32:50;;;;;;;14.30;4.60;;;;;;;;;;5008985;28;20042;-57
2021/11/27 11:35:16;;;;;;;10.10;4.78;;;;;;;;;;4995917;28;21334;-57
2021/11/27 11:37:44;;;;;;;9.95;3.90;;;;;;;;;;5011795;28;20033;-57
2021/11/27 11:40:12;;;;;;;9.13;4.25;;;;;;;;;;5014975;28;20029;-57
2021/11/27 11:42:41;;;;;;;7.47;3.97;;;;;;;;;;4996209;28;20211;-57
2021/11/27 11:45:06;;;;;;;5.10;3.45;;;;;;;;;;4994496;28;20044;-58
2021/11/27 11:47:34;;;;;;;6.00;2.90;;;;;;;;;;5012632;28;20057;-57
2021/11/27 11:50:07;;;;;;;6.70;2.70;;;;;;;;;;4974239;28;20137;-56
2021/11/27 11:52:55;;;;;;;5.28;2.40;;;;;;;;;;5018063;28;20052;-57
2021/11/27 11:55:25;;;;;;;6.93;2.83;;;;;;;;;;5009619;28;20056;-56
2021/11/27 11:57:59;;;;;;;4.57;2.88;;;;;;;;;;5013667;28;20150;-57
2021/11/27 12:00:26;;;;;;;3.92;2.85;;;;;;;;;;4991884;28;20740;-58
2021/11/27 12:02:52;;;;;;;6.07;3.08;;;;;;;;;;5010654;28;20021;-58
2021/11/27 12:05:22;;;;;;;7.07;3.13;;;;;;;;;;4974252;28;20029;-57
2021/11/27 12:07:54;;;;;;;5.75;3.20;;;;;;;;;;5007678;28;20140;-57
2021/11/27 12:10:21;;;;;;;6.97;3.03;;;;;;;;;;4992748;28;20453;-57
2021/11/27 12:13:08;;;;;;;8.07;2.65;;;;;;;;;;5008834;28;20033;-57
2021/11/27 12:15:40;;;;;;;7.78;3.00;;;;;;;;;;4993745;28;20053;-58
2021/11/27 12:18:18;;;;;;;6.82;2.83;;;;;;;;;;5012880;28;20308;-58
2021/11/27 12:21:04;;;;;;;6.22;2.83;;;;;;;;;;5012907;28;21809;-57
2021/11/27 12:23:34;;;;;;;5.80;2.72;;;;;;;;;;5005918;28;20145;-57
2021/11/27 12:26:08;;;;;;;6.72;3.28;;;;;;;;;;5008087;28;20227;-57
2021/11/27 12:28:57;;;;;;;6.00;2.65;;;;;;;;;;5010955;28;20145;-57
2021/11/27 12:31:38;;;;;;;4.10;2.95;;;;;;;;;;5011980;28;20030;-58
2021/11/27 12:34:09;;;;;;;5.68;3.25;;;;;;;;;;5012822;28;20032;-57
2021/11/27 12:36:40;;;;;;;4.97;4.05;;;;;;;;;;5012145;28;20057;-58
2021/11/27 12:39:09;;;;;;;7.18;3.67;;;;;;;;;;4991506;28;20124;-58
2021/11/27 12:41:36;;;;;;;10.05;4.05;;;;;;;;;;5008849;28;20032;-57
2021/11/27 12:44:13;;;;;;;12.35;4.68;;;;;;;;;;5011041;28;20245;-57
2021/11/27 12:46:45;;;;;;;5.57;3.65;;;;;;;;;;4990260;28;20997;-59
2021/11/27 12:49:31;;;;;;;11.25;4.43;;;;;;;;;;4987614;28;20444;-57
2021/11/27 12:52:14;;;;;;;8.55;3.97;;;;;;;;;;5013076;28;20120;-57
2021/11/27 12:54:43;;;;;;;6.10;3.83;;;;;;;;;;5008530;28;20037;-58
2021/11/27 12:57:15;;;;;;;9.52;3.15;;;;;;;;;;4993146;28;20047;-58
2021/11/27 12:59:44;;;;;;;4.03;3.55;;;;;;;;;;4991304;28;20045;-57
2021/11/27 13:02:17;;;;;;;6.47;3.90;;;;;;;;;;5011171;28;20030;-57
2021/11/27 13:04:43;;;;;;;9.30;4.53;;;;;;;;;;5012683;28;20036;-58
2021/11/27 13:07:10;;;;;;;5.15;3.72;;;;;;;;;;5014041;28;20057;-58
2021/11/27 13:09:40;;;;;;;12.38;4.28;;;;;;;;;;4994455;28;20131;-59
2021/11/27 13:12:12;;;;;;;6.50;4.32;;;;;;;;;;4990366;28;20048;-58
2021/11/27 13:14:42;;;;;;;4.53;4.05;;;;;;;;;;4989578;28;20112;-58
2021/11/27 13:17:12;;;;;;;4.50;3.53;;;;;;;;;;5011969;28;20045;-59
2021/11/27 13:19:45;;;;;;;4.47;3.42;;;;;;;;;;5007606;28;20107;-57
2021/11/27 13:22:12;;;;;;;5.80;3.75;;;;;;;;;;5011688;28;20124;-58
2021/11/27 13:24:55;;;;;;;4.13;2.20;;;;;;;;;;5010092;28;20037;-58
2021/11/27 13:27:27;;;;;;;3.10;2.83;;;;;;;;;;4994666;28;20044;-58
2021/11/27 13:30:10;;;;;;;4.35;2.47;;;;;;;;;;5011666;28;20144;-57
2021/11/27 13:32:41;;;;;;;3.70;3.08;;;;;;;;;;5008428;28;20653;-58
2021/11/27 13:35:13;;;;;;;3.92;3.03;;;;;;;;;;4989529;28;20515;-57
2021/11/27 13:37:43;;;;;;;5.35;3.67;;;;;;;;;;5008958;28;20041;-58
2021/11/27 13:40:35;;;;;;;6.10;3.30;;;;;;;;;;5011175;28;20029;-58
2021/11/27 13:43:07;;;;;;;5.80;4.10;;;;;;;;;;4996091;28;20239;-58
2021/11/27 13:45:36;;;;;;;5.10;4.07;;;;;;;;;;5008146;28;20048;-57
2021/11/27 13:48:06;;;;;;;6.80;4.60;;;;;;;;;;5011518;28;20029;-57
2021/11/27 13:50:41;;;;;;;7.72;5.05;;;;;;;;;;5012299;28;20038;-59
2021/11/27 13:53:07;;;;;;;8.23;4.57;;;;;;;;;;4988990;28;20047;-58
2021/11/27 13:55:34;;;;;;;5.68;4.50;;;;;;;;;;5011300;28;20030;-57
2021/11/27 13:58:06;;;;;;;8.75;4.85;;;;;;;;;;5008788;28;20029;-58
2021/11/27 14:00:36;;;;;;;7.28;4.28;;;;;;;;;;5020334;28;20789;-57
2021/11/27 14:03:09;;;;;;;6.72;4.18;;;;;;;;;;5009767;28;20091;-58
2021/11/27 14:05:38;;;;;;;6.57;4.80;;;;;;;;;;5006365;28;21776;-58
2021/11/27 14:08:14;;;;;;;9.40;4.97;;;;;;;;;;5008288;28;20044;-57
2021/11/27 14:10:41;;;;;;;9.25;5.45;;;;;;;;;;5000667;28;20393;-57
2021/11/27 14:13:07;;;;;;;10.07;6.07;;;;;;;;;;5011429;28;20128;-58
2021/11/27 14:15:40;;;;;;;16.15;6.05;;;;;;;;;;5009848;28;20140;-58
2021/11/27 14:18:08;;;;;;;8.23;5.53;;;;;;;;;;5013616;28;20029;-58
2021/11/27 14:20:38;;;;;;;8.60;5.57;;;;;;;;;;4977194;28;20034;-58
2021/11/27 14:23:05;;;;;;;8.32;5.25;;;;;;;;;;4993366;28;20036;-57
2021/11/27 14:25:37;;;;;;;8.02;5.82;;;;;;;;;;4989623;28;20029;-58
2021/11/27 14:28:16;;;;;;;12.75;6.88;;;;;;;;;;5012318;28;20142;-57
2021/11/27 14:30:43;;;;;;;13.10;7.32;;;;;;;;;;5010004;28;20034;-57
2021/11/27 14:33:27;;;;;;;23.75;7.32;;;;;;;;;;4976144;28;20475;-58
2021/11/27 14:35:55;;;;;;;15.73;7.00;;;;;;;;;;5009826;28;20107;-58
2021/11/27 14:38:32;;;;;;;10.73;6.93;;;;;;;;;;4990445;28;20033;-57